Latest Coastal Weather Observations for Lihou Reef Lighthouse

IDQ60701

Issued at 2:12 am EST Friday 5 March 2021 (issued every 10 minutes, with the page automatically refreshed every 10 minutes)

About coastal observations | Map of coastal stations | Coastal observations for QLD | Marine services | Other Formats
Station Details ID: 200880 Name: LIHOU REEF LIGHTHOUSE Lat: -17.13 Lon: 152.15 Height: 10.26 m
Data from the previous 72 hours. | See also: Recent months at Lihou Reef Lighthouse
Date/Time
EST
Wind Sea
Height
m
Swell Vis
km
Cloud Weather Temp
°C
Press
MSL
hPa
Rain since
9am
mm
Dir  Spd
kts
Gust
kts
Height
m
Period
s
Dir
05/02:00am SE 23 28 - - - - - - - 25.3 994.1 -
05/01:30am ESE 22 26 - - - - - - - 25.5 994.9 -
05/01:00am ESE 21 27 - - - - - - - 25.3 995.3 -
05/12:30am ESE 17 23 - - - - - - - 25.2 996.1 -
05/12:00am ESE 16 19 - - - - - - - 25.4 997.1 -
 
Date/Time
EST
Wind Sea
Height
m
Swell Vis
km
Cloud Weather Temp
°C
Press
MSL
hPa
Rain since
9am
mm
Dir  Spd
kts
Gust
kts
Height
m
Period
s
Dir
04/11:30pm E 13 16 - - - - - - - 25.4 997.7 -
04/11:00pm N 11 23 - - - - - - - 24.6 998.7 -
04/10:56pm NNE 16 23 - - - - - - - 24.5 998.7 -
04/10:51pm ENE 19 23 - - - - - - - 25.3 998.6 -
04/10:30pm ENE 15 18 - - - - - - - 26.0 998.4 -
04/10:00pm ENE 13 15 - - - - - - - 26.2 998.9 -
04/09:30pm NE 8 10 - - - - - - - 26.4 999.4 -
04/09:00pm NNE 10 13 - - - - - - - 25.9 999.5 -
04/08:30pm NNE 12 14 - - - - - - - 25.8 999.5 -
04/08:00pm N 12 21 - - - - - - - 25.8 999.7 -
04/07:30pm E 9 11 - - - - - - - 27.4 999.3 -
04/07:00pm ENE 8 8 - - - - - - - 27.3 999.3 -
04/06:30pm ENE 6 7 - - - - - - - 27.2 999.3 -
04/06:00pm NE 6 7 - - - - - - - 27.3 999.3 -
04/05:30pm NE 5 7 - - - - - - - 26.9 999.2 -
04/05:00pm NNE 7 8 - - - - - - - 26.7 999.1 -
04/04:30pm N 10 12 - - - - - - - 26.8 999.1 -
04/04:00pm NNW 8 10 - - - - - - - 28.0 999.1 -
04/03:30pm NNW 10 11 - - - - - - - 28.1 999.3 -
04/03:00pm NNW 9 12 - - - - - - - 28.6 999.1 -
04/02:30pm N 8 10 - - - - - - - 28.5 999.3 -
04/02:00pm NNW 11 13 - - - - - - - 28.9 999.1 -
04/01:30pm N 8 12 - - - - - - - 28.7 999.6 -
04/01:00pm NNW 10 12 - - - - - - - 28.6 1000.4 -
04/12:30pm NW 11 13 - - - - - - - 28.4 1000.6 -
04/12:00pm NW 8 10 - - - - - - - 27.3 1001.2 -
04/11:30am NNW 11 14 - - - - - - - 26.6 1001.7 -
04/11:00am N 15 19 - - - - - - - 26.7 1001.7 -
04/10:30am NNW 13 14 - - - - - - - 27.2 1001.8 -
04/10:00am NNW 14 19 - - - - - - - 27.0 1001.7 -
04/09:30am NW 22 27 - - - - - - - 26.6 1002.3 -
04/09:29am NW 23 27 - - - - - - - 26.6 1002.3 -
04/09:00am NNW 21 29 - - - - - - - 27.9 1002.3 -
04/08:54am NNW 16 28 - - - - - - - 28.7 1002.2 -
04/08:30am NNW 12 16 - - - - - - - 28.9 1002.0 -
04/08:00am N 9 11 - - - - - - - 28.4 1002.1 -
04/07:30am N 9 11 - - - - - - - 28.1 1001.8 -
04/07:00am N 10 11 - - - - - - - 27.9 1001.6 -
04/06:30am N 10 11 - - - - - - - 27.8 1001.4 -
04/06:00am NNW 11 13 - - - - - - - 27.6 1001.4 -
04/05:30am NNW 15 19 - - - - - - - 27.7 1000.8 -
04/05:00am NNW 17 21 - - - - - - - 26.8 1000.7 -
04/04:30am NNW 22 27 - - - - - - - 26.9 1000.6 -
04/04:06am NNW 18 29 - - - - - - - 27.7 1000.7 -
04/04:00am NNW 16 19 - - - - - - - 28.3 1000.7 -
04/03:30am NNW 20 24 - - - - - - - 28.5 1000.3 -
04/03:00am NNW 15 18 - - - - - - - 28.1 1000.1 -
04/02:30am NW 18 21 - - - - - - - 28.6 1000.6 -
04/02:00am NNW 11 13 - - - - - - - 28.4 1001.2 -
04/01:30am NNW 14 16 - - - - - - - 28.4 1001.4 -
04/01:00am NW 9 11 - - - - - - - 27.2 1001.8 -
04/12:42am NNW 21 31 - - - - - - - 25.1 1002.4 -
04/12:34am NNW 12 27 - - - - - - - 26.9 1002.1 -
04/12:30am NNW 8 11 - - - - - - - 28.4 1002.1 -
04/12:00am NNW 9 11 - - - - - - - 28.2 1002.5 -
 
Date/Time
EST
Wind Sea
Height
m
Swell Vis
km
Cloud Weather Temp
°C
Press
MSL
hPa
Rain since
9am
mm
Dir  Spd
kts
Gust
kts
Height
m
Period
s
Dir
03/11:30pm NNW 11 13 - - - - - - - 28.4 1002.4 -
03/11:00pm NNW 8 11 - - - - - - - 28.3 1002.9 -
03/10:30pm NNW 14 23 - - - - - - - 27.3 1003.1 -
03/10:00pm NNW 13 15 - - - - - - - 28.4 1002.7 -
03/09:30pm NNW 13 16 - - - - - - - 28.4 1002.7 -
03/09:00pm NNW 16 20 - - - - - - - 28.1 1002.2 -
03/08:30pm NNW 15 17 - - - - - - - 27.5 1002.0 -
03/08:00pm NNW 15 17 - - - - - - - 27.8 1002.1 -
03/07:30pm N 10 12 - - - - - - - 28.6 1002.1 -
03/07:00pm N 12 14 - - - - - - - 28.5 1001.8 -
03/06:30pm N 9 12 - - - - - - - 28.1 1001.4 -
03/06:00pm N 12 15 - - - - - - - 27.8 1001.2 -
03/05:30pm N 16 20 - - - - - - - 27.1 1001.1 -
03/05:00pm N 10 11 - - - - - - - 28.9 1001.3 -
03/04:30pm N 10 12 - - - - - - - 28.9 1000.8 -
03/04:00pm N 11 13 - - - - - - - 29.0 1000.7 -
03/03:30pm N 8 10 - - - - - - - 28.4 1000.7 -
03/03:00pm N 8 10 - - - - - - - 28.8 1000.8 -
03/02:30pm N 10 12 - - - - - - - 28.7 1001.0 -
03/02:00pm N 9 11 - - - - - - - 28.6 1001.2 -
03/01:30pm N 12 13 - - - - - - - 28.0 1001.5 -
03/01:00pm N 10 11 - - - - - - - 28.4 1001.7 -
03/12:30pm NNE 8 10 - - - - - - - 28.3 1001.7 -
03/12:00pm N 6 8 - - - - - - - 28.4 1002.3 -
03/11:30am NNW 7 8 - - - - - - - 28.1 1002.7 -
03/11:00am NNW 9 10 - - - - - - - 27.6 1002.9 -
03/10:30am NNW 12 14 - - - - - - - 27.3 1003.1 -
03/10:00am NNW 16 19 - - - - - - - 27.2 1003.0 -
03/09:30am N 17 20 - - - - - - - 27.2 1003.1 -
03/09:00am N 18 21 - - - - - - - 27.1 1003.0 -
03/08:39am NE 9 19 - - - - - - - 27.2 1003.0 -
03/08:30am ENE 4 4 - - - - - - - 27.9 1003.2 -
03/08:00am ENE 5 5 - - - - - - - 27.6 1003.0 -
03/07:30am ENE 3 4 - - - - - - - 27.7 1002.8 -
03/07:00am ENE 3 3 - - - - - - - 27.6 1002.5 -
03/06:30am NE 2 3 - - - - - - - 27.5 1002.2 -
03/06:00am NE 3 4 - - - - - - - 27.5 1002.1 -
03/05:30am NNE 4 5 - - - - - - - 27.3 1001.7 -
03/05:00am NNE 5 7 - - - - - - - 27.0 1001.5 -
03/04:30am ENE 2 2 - - - - - - - 27.8 1001.4 -
03/04:00am NNE 3 4 - - - - - - - 28.0 1001.3 -
03/03:30am NNW 5 6 - - - - - - - 28.0 1000.8 -
03/03:00am N 4 5 - - - - - - - 27.8 1000.9 -
03/02:30am NNW 5 6 - - - - - - - 27.9 1001.0 -
03/02:00am N 6 8 - - - - - - - 28.0 1000.9 -
03/01:30am N 5 6 - - - - - - - 27.9 1001.0 -
03/01:00am NNW 5 6 - - - - - - - 28.0 1001.5 -
03/12:30am NNW 5 6 - - - - - - - 27.9 1001.8 -
03/12:00am NNW 6 7 - - - - - - - 28.0 1002.3 -
 
Date/Time
EST
Wind Sea
Height
m
Swell Vis
km
Cloud Weather Temp
°C
Press
MSL
hPa
Rain since
9am
mm
Dir  Spd
kts
Gust
kts
Height
m
Period
s
Dir
02/11:30pm N 7 8 - - - - - - - 27.9 1002.4 -
02/11:00pm N 6 7 - - - - - - - 28.1 1002.5 -
02/10:30pm NNE 5 7 - - - - - - - 27.9 1002.7 -
02/10:00pm ENE 2 4 - - - - - - - 27.5 1002.7 -
02/09:30pm ENE 4 9 - - - - - - - 27.6 1002.6 -
02/09:00pm ENE 3 6 - - - - - - - 28.2 1002.3 -
02/08:30pm E 3 4 - - - - - - - 28.2 1002.3 -
02/08:00pm ENE 3 3 - - - - - - - 28.2 1002.0 -
02/07:30pm NE 5 6 - - - - - - - 28.0 1001.9 -
02/07:00pm NE 6 7 - - - - - - - 27.9 1001.5 -
02/06:30pm E 6 7 - - - - - - - 27.6 1001.0 -
02/06:00pm E 4 4 - - - - - - - 27.4 1000.8 -
02/05:30pm E 1 2 - - - - - - - 28.1 1000.6 -
02/05:00pm S 1 6 - - - - - - - 27.9 1000.4 -
02/04:30pm SW 1 2 - - - - - - - 28.4 1000.4 -
02/04:00pm W 4 6 - - - - - - - 28.3 1000.3 -
02/03:30pm W 9 10 - - - - - - - 27.2 1000.3 -
02/03:00pm NW 12 15 - - - - - - - 26.3 1000.5 -
02/02:30pm N 6 7 - - - - - - - 28.5 1000.3 -
02/02:00pm NNE 5 6 - - - - - - - 28.5 1000.5 -
02/01:30pm N 6 7 - - - - - - - 28.6 1000.4 -
02/01:00pm NNW 5 7 - - - - - - - 28.7 1000.7 -
02/12:30pm N 6 7 - - - - - - - 28.8 1001.0 -
02/12:00pm N 5 6 - - - - - - - 28.5 1001.6 -
02/11:30am N 3 3 - - - - - - - 28.3 1001.9 -
02/11:00am N 6 7 - - - - - - - 28.3 1002.3 -
02/10:30am N 6 6 - - - - - - - 28.5 1002.4 -
02/10:00am NNW 6 7 - - - - - - - 28.4 1002.4 -
02/09:30am NNW 8 9 - - - - - - - 28.4 1002.3 -
02/09:00am NNW 9 11 - - - - - - - 28.2 1002.4 -
02/08:30am NNW 9 10 - - - - - - - 28.3 1002.5 -
02/08:00am NNW 8 10 - - - - - - - 28.3 1002.3 -
02/07:30am N 4 5 - - - - - - - 28.0 1002.1 -
02/07:00am N 3 5 - - - - - - - 27.9 1001.7 -
02/06:30am N 4 6 - - - - - - - 27.8 1001.6 -
02/06:00am NNE 3 4 - - - - - - - 27.8 1001.3 -
02/05:30am NE 2 3 - - - - - - - 27.6 1000.9 -
02/05:00am NNE 4 4 - - - - - - - 27.4 1000.5 -
02/04:30am N 6 7 - - - - - - - 27.5 1000.2 -
02/04:00am N 6 7 - - - - - - - 27.6 1000.0 -
02/03:30am NNE 4 5 - - - - - - - 27.5 999.9 -
02/03:00am NNE 4 5 - - - - - - - 27.5 1000.2 -
02/02:30am N 4 5 - - - - - - - 27.6 1000.6 -

Other formats

Comma delimited format used in spreadsheet applications
http://www.bom.gov.au/fwo/IDQ60701/IDQ60701.94293.axf

JavaScript Object Notation format (JSON) in row-major order
http://www.bom.gov.au/fwo/IDQ60701/IDQ60701.94293.json

Data quality

Most of these data are generated automatically and are frequently updated. Quality checks on data are not normally performed. It is possible for incorrect values to appear. Refer to information at About Latest Weather Observations and please check the disclaimer before using these data.